sensor_id;sensor_type;location;lat;lon;timestamp;pressure;altitude;pressure_sealevel;temperature;humidity
11329;BME280;5719;42.714;23.732;2022-07-17T00:01:58;94793.28;;;17.85;97.91
11329;BME280;5719;42.714;23.732;2022-07-17T00:04:26;94798.16;;;17.43;100.00
11329;BME280;5719;42.714;23.732;2022-07-17T00:06:54;94800.22;;;17.40;100.00
11329;BME280;5719;42.714;23.732;2022-07-17T00:09:21;94806.94;;;17.42;100.00
11329;BME280;5719;42.714;23.732;2022-07-17T00:11:48;94800.28;;;17.30;100.00
11329;BME280;5719;42.714;23.732;2022-07-17T00:14:15;94816.78;;;17.21;100.00
11329;BME280;5719;42.714;23.732;2022-07-17T00:16:42;94804.81;;;17.28;100.00
11329;BME280;5719;42.714;23.732;2022-07-17T00:19:09;94804.66;;;17.30;100.00
11329;BME280;5719;42.714;23.732;2022-07-17T00:21:36;94803.31;;;17.16;100.00
11329;BME280;5719;42.714;23.732;2022-07-17T00:24:05;94812.59;;;17.01;100.00
11329;BME280;5719;42.714;23.732;2022-07-17T00:26:33;94817.25;;;17.07;100.00
11329;BME280;5719;42.714;23.732;2022-07-17T00:29:03;94802.41;;;16.98;100.00
11329;BME280;5719;42.714;23.732;2022-07-17T00:31:30;94816.13;;;17.09;100.00
11329;BME280;5719;42.714;23.732;2022-07-17T00:33:57;94813.22;;;17.12;100.00
11329;BME280;5719;42.714;23.732;2022-07-17T00:36:24;94817.75;;;17.20;100.00
11329;BME280;5719;42.714;23.732;2022-07-17T00:38:51;94814.19;;;17.21;100.00
11329;BME280;5719;42.714;23.732;2022-07-17T00:41:21;94812.69;;;17.09;100.00
11329;BME280;5719;42.714;23.732;2022-07-17T00:43:48;94829.75;;;17.03;100.00
11329;BME280;5719;42.714;23.732;2022-07-17T00:46:15;94826.72;;;16.98;100.00
11329;BME280;5719;42.714;23.732;2022-07-17T00:48:42;94831.00;;;16.99;100.00
11329;BME280;5719;42.714;23.732;2022-07-17T00:51:09;94831.41;;;17.04;100.00
11329;BME280;5719;42.714;23.732;2022-07-17T00:53:37;94838.00;;;17.08;100.00
11329;BME280;5719;42.714;23.732;2022-07-17T00:56:05;94837.03;;;17.09;100.00
11329;BME280;5719;42.714;23.732;2022-07-17T00:58:36;94835.94;;;17.12;100.00
11329;BME280;5719;42.714;23.732;2022-07-17T01:01:04;94834.16;;;17.03;100.00
11329;BME280;5719;42.714;23.732;2022-07-17T01:03:32;94840.34;;;17.02;100.00
11329;BME280;5719;42.714;23.732;2022-07-17T01:06:00;94844.19;;;17.07;100.00
11329;BME280;5719;42.714;23.732;2022-07-17T01:08:27;94840.47;;;17.10;100.00
11329;BME280;5719;42.714;23.732;2022-07-17T01:10:54;94835.28;;;17.00;100.00
11329;BME280;5719;42.714;23.732;2022-07-17T01:13:21;94841.88;;;17.04;100.00
11329;BME280;5719;42.714;23.732;2022-07-17T01:15:50;94850.50;;;17.05;100.00
11329;BME280;5719;42.714;23.732;2022-07-17T01:18:16;94850.25;;;17.08;100.00
11329;BME280;5719;42.714;23.732;2022-07-17T01:20:46;94849.69;;;17.04;100.00
11329;BME280;5719;42.714;23.732;2022-07-17T01:23:16;94851.34;;;17.05;100.00
11329;BME280;5719;42.714;23.732;2022-07-17T01:25:44;94853.00;;;17.06;100.00
11329;BME280;5719;42.714;23.732;2022-07-17T01:28:11;94854.38;;;17.01;100.00
11329;BME280;5719;42.714;23.732;2022-07-17T01:30:45;94857.00;;;17.01;100.00
11329;BME280;5719;42.714;23.732;2022-07-17T01:33:12;94850.50;;;17.05;100.00
11329;BME280;5719;42.714;23.732;2022-07-17T01:35:39;94853.28;;;17.03;100.00
11329;BME280;5719;42.714;23.732;2022-07-17T01:38:06;94852.19;;;16.96;100.00
11329;BME280;5719;42.714;23.732;2022-07-17T01:40:34;94857.00;;;16.91;100.00
11329;BME280;5719;42.714;23.732;2022-07-17T01:43:01;94852.47;;;16.84;100.00
11329;BME280;5719;42.714;23.732;2022-07-17T01:45:28;94850.13;;;16.90;100.00
11329;BME280;5719;42.714;23.732;2022-07-17T01:47:55;94845.84;;;16.80;100.00
11329;BME280;5719;42.714;23.732;2022-07-17T01:50:22;94844.63;;;16.84;100.00
11329;BME280;5719;42.714;23.732;2022-07-17T01:52:49;94848.47;;;16.80;100.00
11329;BME280;5719;42.714;23.732;2022-07-17T01:55:16;94848.59;;;16.68;100.00
11329;BME280;5719;42.714;23.732;2022-07-17T01:57:44;94844.22;;;16.69;100.00
11329;BME280;5719;42.714;23.732;2022-07-17T02:00:13;94831.31;;;16.67;100.00
11329;BME280;5719;42.714;23.732;2022-07-17T02:02:41;94839.28;;;16.66;100.00
11329;BME280;5719;42.714;23.732;2022-07-17T02:05:09;94820.47;;;16.62;100.00
11329;BME280;5719;42.714;23.732;2022-07-17T02:07:36;94835.03;;;16.75;100.00
11329;BME280;5719;42.714;23.732;2022-07-17T02:10:07;94838.72;;;16.72;100.00
11329;BME280;5719;42.714;23.732;2022-07-17T02:12:34;94828.84;;;16.76;100.00
11329;BME280;5719;42.714;23.732;2022-07-17T02:15:02;94832.41;;;16.75;100.00
11329;BME280;5719;42.714;23.732;2022-07-17T02:17:30;94837.50;;;16.66;100.00
11329;BME280;5719;42.714;23.732;2022-07-17T02:19:56;94838.16;;;16.68;100.00
11329;BME280;5719;42.714;23.732;2022-07-17T02:22:23;94846.84;;;16.59;100.00
11329;BME280;5719;42.714;23.732;2022-07-17T02:24:50;94841.22;;;16.64;100.00
11329;BME280;5719;42.714;23.732;2022-07-17T02:27:17;94843.28;;;16.60;100.00
11329;BME280;5719;42.714;23.732;2022-07-17T02:29:44;94836.53;;;16.58;100.00
11329;BME280;5719;42.714;23.732;2022-07-17T02:32:12;94842.28;;;16.52;100.00
11329;BME280;5719;42.714;23.732;2022-07-17T02:34:39;94850.50;;;16.47;100.00
11329;BME280;5719;42.714;23.732;2022-07-17T02:37:06;94849.69;;;16.37;100.00
11329;BME280;5719;42.714;23.732;2022-07-17T02:39:33;94855.28;;;16.33;100.00
11329;BME280;5719;42.714;23.732;2022-07-17T02:42:00;94852.56;;;16.34;100.00
11329;BME280;5719;42.714;23.732;2022-07-17T02:44:26;94849.97;;;16.34;100.00
11329;BME280;5719;42.714;23.732;2022-07-17T02:46:53;94858.47;;;16.36;100.00
11329;BME280;5719;42.714;23.732;2022-07-17T02:49:21;94857.22;;;16.40;100.00
11329;BME280;5719;42.714;23.732;2022-07-17T02:51:48;94861.34;;;16.33;100.00
11329;BME280;5719;42.714;23.732;2022-07-17T02:54:15;94867.78;;;16.29;100.00
11329;BME280;5719;42.714;23.732;2022-07-17T02:56:42;94871.94;;;16.32;100.00
11329;BME280;5719;42.714;23.732;2022-07-17T02:59:09;94868.47;;;16.22;100.00
11329;BME280;5719;42.714;23.732;2022-07-17T03:01:36;94869.97;;;16.14;100.00
11329;BME280;5719;42.714;23.732;2022-07-17T03:04:03;94872.28;;;16.08;100.00
11329;BME280;5719;42.714;23.732;2022-07-17T03:06:31;94871.56;;;15.96;100.00
11329;BME280;5719;42.714;23.732;2022-07-17T03:08:58;94877.34;;;16.00;100.00
11329;BME280;5719;42.714;23.732;2022-07-17T03:11:25;94872.38;;;15.97;100.00
11329;BME280;5719;42.714;23.732;2022-07-17T03:13:52;94890.91;;;15.94;100.00
11329;BME280;5719;42.714;23.732;2022-07-17T03:16:18;94886.94;;;15.99;100.00
11329;BME280;5719;42.714;23.732;2022-07-17T03:18:45;94893.53;;;16.03;100.00
11329;BME280;5719;42.714;23.732;2022-07-17T03:21:12;94888.09;;;16.06;100.00
11329;BME280;5719;42.714;23.732;2022-07-17T03:23:40;94887.38;;;16.04;100.00
11329;BME280;5719;42.714;23.732;2022-07-17T03:26:07;94892.41;;;15.96;100.00
11329;BME280;5719;42.714;23.732;2022-07-17T03:28:34;94886.94;;;15.99;100.00
11329;BME280;5719;42.714;23.732;2022-07-17T03:31:01;94889.41;;;16.01;100.00
11329;BME280;5719;42.714;23.732;2022-07-17T03:33:28;94894.34;;;15.94;100.00
11329;BME280;5719;42.714;23.732;2022-07-17T03:35:55;94902.81;;;15.87;100.00
11329;BME280;5719;42.714;23.732;2022-07-17T03:38:22;94891.13;;;15.81;100.00
11329;BME280;5719;42.714;23.732;2022-07-17T03:40:50;94896.50;;;15.80;100.00
11329;BME280;5719;42.714;23.732;2022-07-17T03:43:17;94894.81;;;15.69;100.00
11329;BME280;5719;42.714;23.732;2022-07-17T03:45:44;94908.91;;;15.66;100.00
11329;BME280;5719;42.714;23.732;2022-07-17T03:48:11;94906.28;;;15.66;100.00
11329;BME280;5719;42.714;23.732;2022-07-17T03:50:38;94905.88;;;15.61;100.00
11329;BME280;5719;42.714;23.732;2022-07-17T03:53:05;94902.44;;;15.61;100.00
11329;BME280;5719;42.714;23.732;2022-07-17T03:55:32;94906.94;;;15.38;100.00
11329;BME280;5719;42.714;23.732;2022-07-17T03:58:00;94914.34;;;15.33;100.00
11329;BME280;5719;42.714;23.732;2022-07-17T04:00:27;94919.78;;;15.30;100.00
11329;BME280;5719;42.714;23.732;2022-07-17T04:02:54;94917.63;;;15.35;100.00
11329;BME280;5719;42.714;23.732;2022-07-17T04:05:21;94920.34;;;15.34;100.00
11329;BME280;5719;42.714;23.732;2022-07-17T04:07:48;94911.22;;;15.39;100.00
11329;BME280;5719;42.714;23.732;2022-07-17T04:10:15;94922.53;;;15.49;100.00
11329;BME280;5719;42.714;23.732;2022-07-17T04:12:42;94927.03;;;15.47;100.00
11329;BME280;5719;42.714;23.732;2022-07-17T04:15:11;94922.28;;;15.52;100.00
11329;BME280;5719;42.714;23.732;2022-07-17T04:17:38;94918.75;;;15.63;100.00
11329;BME280;5719;42.714;23.732;2022-07-17T04:20:05;94934.03;;;15.47;100.00
11329;BME280;5719;42.714;23.732;2022-07-17T04:22:33;94942.44;;;15.50;100.00
11329;BME280;5719;42.714;23.732;2022-07-17T04:25:00;94956.16;;;15.73;100.00
11329;BME280;5719;42.714;23.732;2022-07-17T04:27:26;94948.81;;;15.88;100.00
11329;BME280;5719;42.714;23.732;2022-07-17T04:29:53;94953.41;;;16.05;100.00
11329;BME280;5719;42.714;23.732;2022-07-17T04:32:22;94940.16;;;16.27;100.00
11329;BME280;5719;42.714;23.732;2022-07-17T04:34:48;94943.50;;;16.48;100.00
11329;BME280;5719;42.714;23.732;2022-07-17T04:37:15;94946.19;;;16.67;100.00
11329;BME280;5719;42.714;23.732;2022-07-17T04:39:42;94951.69;;;16.84;100.00
11329;BME280;5719;42.714;23.732;2022-07-17T04:42:09;94952.66;;;16.92;100.00
11329;BME280;5719;42.714;23.732;2022-07-17T04:44:36;94959.13;;;17.17;100.00
11329;BME280;5719;42.714;23.732;2022-07-17T04:47:03;94957.06;;;17.40;100.00
11329;BME280;5719;42.714;23.732;2022-07-17T04:49:31;94966.53;;;17.60;100.00
11329;BME280;5719;42.714;23.732;2022-07-17T04:51:58;94973.13;;;17.74;100.00
11329;BME280;5719;42.714;23.732;2022-07-17T04:54:25;94966.56;;;17.97;100.00
11329;BME280;5719;42.714;23.732;2022-07-17T04:56:52;94964.56;;;18.18;100.00
11329;BME280;5719;42.714;23.732;2022-07-17T04:59:19;94966.34;;;18.27;100.00
11329;BME280;5719;42.714;23.732;2022-07-17T05:01:46;94963.81;;;18.35;100.00
11329;BME280;5719;42.714;23.732;2022-07-17T05:04:13;94965.81;;;18.51;100.00
11329;BME280;5719;42.714;23.732;2022-07-17T05:06:41;94975.38;;;18.70;100.00
11329;BME280;5719;42.714;23.732;2022-07-17T05:09:09;94971.97;;;18.87;100.00
11329;BME280;5719;42.714;23.732;2022-07-17T05:11:38;94969.50;;;19.03;100.00
11329;BME280;5719;42.714;23.732;2022-07-17T05:14:05;94974.28;;;19.25;100.00
11329;BME280;5719;42.714;23.732;2022-07-17T05:16:32;94966.13;;;19.46;100.00
11329;BME280;5719;42.714;23.732;2022-07-17T05:18:59;94982.16;;;19.61;100.00
11329;BME280;5719;42.714;23.732;2022-07-17T05:21:26;94978.97;;;19.75;99.64
11329;BME280;5719;42.714;23.732;2022-07-17T05:23:55;94978.56;;;19.87;98.01
11329;BME280;5719;42.714;23.732;2022-07-17T05:26:22;94974.72;;;19.99;97.88
11329;BME280;5719;42.714;23.732;2022-07-17T05:28:49;94980.69;;;20.10;96.87
11329;BME280;5719;42.714;23.732;2022-07-17T05:31:15;94990.22;;;20.19;95.74
11329;BME280;5719;42.714;23.732;2022-07-17T05:33:42;94981.50;;;20.36;93.17
11329;BME280;5719;42.714;23.732;2022-07-17T05:36:09;94980.09;;;20.49;92.64
11329;BME280;5719;42.714;23.732;2022-07-17T05:38:37;94977.31;;;20.59;90.33
11329;BME280;5719;42.714;23.732;2022-07-17T05:41:05;94978.84;;;20.70;92.90
11329;BME280;5719;42.714;23.732;2022-07-17T05:43:32;94971.47;;;20.73;92.70
11329;BME280;5719;42.714;23.732;2022-07-17T05:45:59;94972.00;;;20.93;92.72
11329;BME280;5719;42.714;23.732;2022-07-17T05:48:29;94975.53;;;21.18;92.38
11329;BME280;5719;42.714;23.732;2022-07-17T05:50:57;94971.78;;;21.36;89.12
11329;BME280;5719;42.714;23.732;2022-07-17T05:53:24;94971.13;;;21.59;86.65
11329;BME280;5719;42.714;23.732;2022-07-17T05:55:51;94980.34;;;21.55;85.18
11329;BME280;5719;42.714;23.732;2022-07-17T05:58:19;94979.03;;;21.67;83.62
11329;BME280;5719;42.714;23.732;2022-07-17T06:00:46;94979.53;;;21.78;82.25
11329;BME280;5719;42.714;23.732;2022-07-17T06:03:14;94987.22;;;21.80;81.28
11329;BME280;5719;42.714;23.732;2022-07-17T06:05:42;94994.81;;;21.99;83.16
11329;BME280;5719;42.714;23.732;2022-07-17T06:08:09;94994.44;;;22.26;82.57
11329;BME280;5719;42.714;23.732;2022-07-17T06:10:36;94999.16;;;22.47;78.42
11329;BME280;5719;42.714;23.732;2022-07-17T06:13:04;94990.22;;;22.56;77.90
11329;BME280;5719;42.714;23.732;2022-07-17T06:15:32;94993.31;;;22.76;77.25
11329;BME280;5719;42.714;23.732;2022-07-17T06:18:00;94987.94;;;22.92;75.23
11329;BME280;5719;42.714;23.732;2022-07-17T06:20:28;94994.81;;;23.09;74.70
11329;BME280;5719;42.714;23.732;2022-07-17T06:22:55;94994.31;;;23.28;70.03
11329;BME280;5719;42.714;23.732;2022-07-17T06:25:23;94992.94;;;23.40;69.79
11329;BME280;5719;42.714;23.732;2022-07-17T06:27:50;94992.63;;;23.43;67.77
11329;BME280;5719;42.714;23.732;2022-07-17T06:30:17;94988.34;;;23.12;68.80
11329;BME280;5719;42.714;23.732;2022-07-17T06:32:45;94981.66;;;23.01;72.67
11329;BME280;5719;42.714;23.732;2022-07-17T06:35:12;94994.66;;;23.03;71.60
11329;BME280;5719;42.714;23.732;2022-07-17T06:37:39;94993.84;;;23.25;71.60
11329;BME280;5719;42.714;23.732;2022-07-17T06:40:07;94983.72;;;23.44;69.58
11329;BME280;5719;42.714;23.732;2022-07-17T06:42:34;94992.44;;;23.68;67.34
11329;BME280;5719;42.714;23.732;2022-07-17T06:45:01;95004.94;;;23.74;65.54
11329;BME280;5719;42.714;23.732;2022-07-17T06:47:27;94994.22;;;23.90;63.55
11329;BME280;5719;42.714;23.732;2022-07-17T06:49:56;94992.22;;;24.15;59.78
11329;BME280;5719;42.714;23.732;2022-07-17T06:52:23;95000.34;;;24.42;60.01
11329;BME280;5719;42.714;23.732;2022-07-17T06:54:50;95009.84;;;24.66;57.40
11329;BME280;5719;42.714;23.732;2022-07-17T06:57:17;95003.38;;;24.83;57.50
11329;BME280;5719;42.714;23.732;2022-07-17T06:59:43;95006.91;;;25.05;57.18
11329;BME280;5719;42.714;23.732;2022-07-17T07:02:10;95005.78;;;25.14;52.54
11329;BME280;5719;42.714;23.732;2022-07-17T07:04:37;95007.69;;;25.20;52.81
11329;BME280;5719;42.714;23.732;2022-07-17T07:07:06;95008.81;;;25.32;50.08
11329;BME280;5719;42.714;23.732;2022-07-17T07:09:33;95000.56;;;25.57;49.36
11329;BME280;5719;42.714;23.732;2022-07-17T07:12:00;95010.03;;;25.66;49.26
11329;BME280;5719;42.714;23.732;2022-07-17T07:14:26;95005.16;;;25.69;48.98
11329;BME280;5719;42.714;23.732;2022-07-17T07:16:53;95005.34;;;25.89;47.35
11329;BME280;5719;42.714;23.732;2022-07-17T07:19:20;95015.13;;;26.16;48.12
11329;BME280;5719;42.714;23.732;2022-07-17T07:21:47;95007.56;;;26.34;44.49
11329;BME280;5719;42.714;23.732;2022-07-17T07:24:16;95009.91;;;26.51;44.30
11329;BME280;5719;42.714;23.732;2022-07-17T07:26:43;95009.38;;;26.62;42.90
11329;BME280;5719;42.714;23.732;2022-07-17T07:29:10;95008.19;;;26.71;41.93
11329;BME280;5719;42.714;23.732;2022-07-17T07:31:36;95014.25;;;26.93;44.00
11329;BME280;5719;42.714;23.732;2022-07-17T07:34:03;95008.19;;;27.05;41.84
11329;BME280;5719;42.714;23.732;2022-07-17T07:36:30;95016.44;;;27.23;40.45
11329;BME280;5719;42.714;23.732;2022-07-17T07:38:58;95014.84;;;27.36;40.25
11329;BME280;5719;42.714;23.732;2022-07-17T07:41:26;95021.88;;;27.56;40.50
11329;BME280;5719;42.714;23.732;2022-07-17T07:43:53;95020.88;;;27.77;39.13
11329;BME280;5719;42.714;23.732;2022-07-17T07:46:20;95027.44;;;27.88;39.28
11329;BME280;5719;42.714;23.732;2022-07-17T07:48:47;95028.47;;;28.00;38.89
11329;BME280;5719;42.714;23.732;2022-07-17T07:51:14;95019.94;;;28.17;38.95
11329;BME280;5719;42.714;23.732;2022-07-17T07:53:43;95026.88;;;28.25;37.81
11329;BME280;5719;42.714;23.732;2022-07-17T07:56:10;95027.09;;;28.37;38.06
11329;BME280;5719;42.714;23.732;2022-07-17T07:58:39;95038.34;;;28.52;38.41
11329;BME280;5719;42.714;23.732;2022-07-17T08:01:06;95037.69;;;28.56;39.29
11329;BME280;5719;42.714;23.732;2022-07-17T08:03:33;95034.63;;;28.72;37.96
11329;BME280;5719;42.714;23.732;2022-07-17T08:06:00;95033.19;;;28.57;37.07
11329;BME280;5719;42.714;23.732;2022-07-17T08:08:27;95028.50;;;28.72;37.76
11329;BME280;5719;42.714;23.732;2022-07-17T08:10:54;95034.81;;;28.71;37.80
11329;BME280;5719;42.714;23.732;2022-07-17T08:13:21;95039.13;;;28.72;37.93
11329;BME280;5719;42.714;23.732;2022-07-17T08:15:49;95030.75;;;28.82;36.71
11329;BME280;5719;42.714;23.732;2022-07-17T08:18:16;95032.56;;;28.88;35.89
11329;BME280;5719;42.714;23.732;2022-07-17T08:20:43;95035.19;;;28.94;36.56
11329;BME280;5719;42.714;23.732;2022-07-17T08:23:10;95043.38;;;28.93;36.95
11329;BME280;5719;42.714;23.732;2022-07-17T08:25:37;95039.06;;;28.98;37.27
11329;BME280;5719;42.714;23.732;2022-07-17T08:28:05;95036.13;;;29.19;36.42
11329;BME280;5719;42.714;23.732;2022-07-17T08:30:32;95027.94;;;29.28;37.46
11329;BME280;5719;42.714;23.732;2022-07-17T08:33:02;95032.41;;;29.34;37.27
11329;BME280;5719;42.714;23.732;2022-07-17T08:35:29;95040.75;;;29.44;36.51
11329;BME280;5719;42.714;23.732;2022-07-17T08:37:57;95048.09;;;29.55;35.95
11329;BME280;5719;42.714;23.732;2022-07-17T08:40:28;95030.97;;;29.76;36.97
11329;BME280;5719;42.714;23.732;2022-07-17T08:42:56;95035.25;;;29.83;36.03
11329;BME280;5719;42.714;23.732;2022-07-17T08:45:24;95037.25;;;29.88;35.89
11329;BME280;5719;42.714;23.732;2022-07-17T08:47:52;95028.00;;;29.97;34.35
11329;BME280;5719;42.714;23.732;2022-07-17T08:50:23;95024.84;;;30.06;34.74
11329;BME280;5719;42.714;23.732;2022-07-17T08:52:51;95032.56;;;30.14;35.75
11329;BME280;5719;42.714;23.732;2022-07-17T08:55:18;95031.53;;;30.15;34.58
11329;BME280;5719;42.714;23.732;2022-07-17T08:57:45;95026.91;;;30.29;34.29
11329;BME280;5719;42.714;23.732;2022-07-17T09:00:14;95026.53;;;30.26;34.09
11329;BME280;5719;42.714;23.732;2022-07-17T09:02:53;95024.97;;;30.43;34.47
11329;BME280;5719;42.714;23.732;2022-07-17T09:05:23;95029.16;;;30.57;34.27
11329;BME280;5719;42.714;23.732;2022-07-17T09:07:50;95026.72;;;30.55;33.63
11329;BME280;5719;42.714;23.732;2022-07-17T09:10:18;95030.88;;;30.70;35.59
11329;BME280;5719;42.714;23.732;2022-07-17T09:12:45;95032.44;;;31.02;34.94
11329;BME280;5719;42.714;23.732;2022-07-17T09:15:17;95031.91;;;31.11;32.33
11329;BME280;5719;42.714;23.732;2022-07-17T09:17:48;95034.56;;;31.30;33.47
11329;BME280;5719;42.714;23.732;2022-07-17T09:20:15;95031.28;;;31.46;33.71
11329;BME280;5719;42.714;23.732;2022-07-17T09:22:44;95035.28;;;31.37;34.89
11329;BME280;5719;42.714;23.732;2022-07-17T09:25:11;95036.06;;;31.44;34.18
11329;BME280;5719;42.714;23.732;2022-07-17T09:27:39;95030.00;;;31.48;33.36
11329;BME280;5719;42.714;23.732;2022-07-17T09:30:08;95031.28;;;31.64;33.00
11329;BME280;5719;42.714;23.732;2022-07-17T09:32:38;95032.81;;;31.72;33.29
11329;BME280;5719;42.714;23.732;2022-07-17T09:35:08;95038.44;;;30.97;33.01
11329;BME280;5719;42.714;23.732;2022-07-17T09:37:36;95028.78;;;30.96;33.85
11329;BME280;5719;42.714;23.732;2022-07-17T09:40:11;95031.03;;;31.18;33.37
11329;BME280;5719;42.714;23.732;2022-07-17T09:42:59;95031.59;;;31.20;34.15
11329;BME280;5719;42.714;23.732;2022-07-17T09:45:26;95035.00;;;31.27;34.47
11329;BME280;5719;42.714;23.732;2022-07-17T09:47:53;95034.56;;;31.30;33.83
11329;BME280;5719;42.714;23.732;2022-07-17T09:50:21;95040.72;;;31.12;33.65
11329;BME280;5719;42.714;23.732;2022-07-17T09:52:49;95031.09;;;31.29;34.33
11329;BME280;5719;42.714;23.732;2022-07-17T09:55:22;95023.22;;;31.52;35.05
11329;BME280;5719;42.714;23.732;2022-07-17T09:57:54;95028.09;;;31.55;34.59
11329;BME280;5719;42.714;23.732;2022-07-17T10:00:21;95039.59;;;31.56;34.13
11329;BME280;5719;42.714;23.732;2022-07-17T10:02:49;95035.13;;;31.50;33.01
11329;BME280;5719;42.714;23.732;2022-07-17T10:05:16;95038.16;;;31.72;33.27
11329;BME280;5719;42.714;23.732;2022-07-17T10:07:44;95013.00;;;31.91;33.40
11329;BME280;5719;42.714;23.732;2022-07-17T10:10:13;95022.50;;;31.75;34.12
11329;BME280;5719;42.714;23.732;2022-07-17T10:12:43;95030.50;;;31.75;33.08
11329;BME280;5719;42.714;23.732;2022-07-17T10:15:12;95027.38;;;31.78;33.54
11329;BME280;5719;42.714;23.732;2022-07-17T10:17:39;95023.34;;;31.87;32.09
11329;BME280;5719;42.714;23.732;2022-07-17T10:20:07;95022.78;;;31.97;32.63
11329;BME280;5719;42.714;23.732;2022-07-17T10:22:42;95023.06;;;31.77;31.51
11329;BME280;5719;42.714;23.732;2022-07-17T10:25:13;95021.25;;;31.89;31.37
11329;BME280;5719;42.714;23.732;2022-07-17T10:27:50;95027.47;;;32.01;31.94
11329;BME280;5719;42.714;23.732;2022-07-17T10:30:22;95026.00;;;32.17;31.97
11329;BME280;5719;42.714;23.732;2022-07-17T10:32:55;95015.19;;;32.24;32.36
11329;BME280;5719;42.714;23.732;2022-07-17T10:35:24;95016.38;;;32.28;31.07
11329;BME280;5719;42.714;23.732;2022-07-17T10:37:52;95006.72;;;32.38;31.77
11329;BME280;5719;42.714;23.732;2022-07-17T10:40:21;95008.22;;;32.34;32.11
11329;BME280;5719;42.714;23.732;2022-07-17T10:42:57;95008.59;;;32.38;30.40
11329;BME280;5719;42.714;23.732;2022-07-17T10:45:29;95006.47;;;32.28;31.03
11329;BME280;5719;42.714;23.732;2022-07-17T10:48:00;95006.25;;;32.30;31.67
11329;BME280;5719;42.714;23.732;2022-07-17T10:50:31;94999.38;;;32.34;32.33
11329;BME280;5719;42.714;23.732;2022-07-17T10:53:09;94995.66;;;32.35;31.36
11329;BME280;5719;42.714;23.732;2022-07-17T10:55:39;94997.19;;;32.31;32.14
11329;BME280;5719;42.714;23.732;2022-07-17T10:58:30;94997.63;;;32.28;32.73
11329;BME280;5719;42.714;23.732;2022-07-17T11:01:04;94991.91;;;32.36;33.39
11329;BME280;5719;42.714;23.732;2022-07-17T11:03:35;94990.78;;;32.55;32.39
11329;BME280;5719;42.714;23.732;2022-07-17T11:06:12;94992.66;;;32.66;32.62
11329;BME280;5719;42.714;23.732;2022-07-17T11:08:52;94986.47;;;32.42;31.99
11329;BME280;5719;42.714;23.732;2022-07-17T11:11:21;94987.97;;;32.27;33.39
11329;BME280;5719;42.714;23.732;2022-07-17T11:13:51;94980.66;;;32.45;32.61
11329;BME280;5719;42.714;23.732;2022-07-17T11:16:28;94986.00;;;32.69;32.57
11329;BME280;5719;42.714;23.732;2022-07-17T11:18:56;94983.31;;;32.80;32.90
11329;BME280;5719;42.714;23.732;2022-07-17T11:21:24;94984.00;;;32.87;32.98
11329;BME280;5719;42.714;23.732;2022-07-17T11:23:53;94990.69;;;32.73;33.87
11329;BME280;5719;42.714;23.732;2022-07-17T11:26:20;94989.41;;;32.64;33.02
11329;BME280;5719;42.714;23.732;2022-07-17T11:28:49;94977.25;;;32.50;32.22
11329;BME280;5719;42.714;23.732;2022-07-17T11:31:21;94987.28;;;32.43;32.76
11329;BME280;5719;42.714;23.732;2022-07-17T11:33:50;94987.88;;;32.45;32.90
11329;BME280;5719;42.714;23.732;2022-07-17T11:36:25;94986.56;;;32.36;32.38
11329;BME280;5719;42.714;23.732;2022-07-17T11:38:53;94975.41;;;32.50;32.73
11329;BME280;5719;42.714;23.732;2022-07-17T11:41:20;94983.94;;;32.82;32.21
11329;BME280;5719;42.714;23.732;2022-07-17T11:43:49;94969.44;;;33.07;31.22
11329;BME280;5719;42.714;23.732;2022-07-17T11:46:16;94982.00;;;33.06;31.96
11329;BME280;5719;42.714;23.732;2022-07-17T11:48:45;94962.44;;;33.17;30.93
11329;BME280;5719;42.714;23.732;2022-07-17T11:51:12;94957.78;;;33.41;30.85
11329;BME280;5719;42.714;23.732;2022-07-17T11:53:39;94957.28;;;33.16;30.29
11329;BME280;5719;42.714;23.732;2022-07-17T11:56:07;94958.53;;;33.36;31.42
11329;BME280;5719;42.714;23.732;2022-07-17T11:58:41;94959.22;;;33.60;30.41
11329;BME280;5719;42.714;23.732;2022-07-17T12:01:09;94945.13;;;33.81;30.53
11329;BME280;5719;42.714;23.732;2022-07-17T12:03:36;94955.09;;;33.97;31.08
11329;BME280;5719;42.714;23.732;2022-07-17T12:06:07;94965.34;;;34.00;31.25
11329;BME280;5719;42.714;23.732;2022-07-17T12:08:35;94958.00;;;33.79;31.80
11329;BME280;5719;42.714;23.732;2022-07-17T12:11:05;94957.50;;;33.82;30.71
11329;BME280;5719;42.714;23.732;2022-07-17T12:13:39;94951.91;;;34.00;30.71
11329;BME280;5719;42.714;23.732;2022-07-17T12:16:22;94948.50;;;34.05;30.72
11329;BME280;5719;42.714;23.732;2022-07-17T12:18:56;94959.97;;;34.00;31.50
11329;BME280;5719;42.714;23.732;2022-07-17T12:21:26;94945.47;;;33.68;31.94
11329;BME280;5719;42.714;23.732;2022-07-17T12:23:57;94939.28;;;33.68;31.61
11329;BME280;5719;42.714;23.732;2022-07-17T12:26:25;94949.44;;;33.66;32.28
11329;BME280;5719;42.714;23.732;2022-07-17T12:28:52;94946.94;;;33.76;32.59
11329;BME280;5719;42.714;23.732;2022-07-17T12:31:19;94936.97;;;33.88;31.38
11329;BME280;5719;42.714;23.732;2022-07-17T12:33:46;94931.81;;;33.86;31.65
11329;BME280;5719;42.714;23.732;2022-07-17T12:36:14;94932.59;;;33.70;31.24
11329;BME280;5719;42.714;23.732;2022-07-17T12:38:43;94934.41;;;33.81;33.15
11329;BME280;5719;42.714;23.732;2022-07-17T12:41:11;94931.16;;;33.96;31.75
11329;BME280;5719;42.714;23.732;2022-07-17T12:43:38;94929.13;;;33.86;32.29
11329;BME280;5719;42.714;23.732;2022-07-17T12:46:05;94925.91;;;33.84;31.75
11329;BME280;5719;42.714;23.732;2022-07-17T12:48:32;94917.25;;;33.82;31.61
11329;BME280;5719;42.714;23.732;2022-07-17T12:51:00;94930.59;;;33.49;31.11
11329;BME280;5719;42.714;23.732;2022-07-17T12:53:27;94927.25;;;33.42;31.70
11329;BME280;5719;42.714;23.732;2022-07-17T12:55:55;94923.75;;;33.13;31.35
11329;BME280;5719;42.714;23.732;2022-07-17T12:58:22;94919.03;;;32.57;31.73
11329;BME280;5719;42.714;23.732;2022-07-17T13:00:49;94917.56;;;32.15;32.79